createdAt,value
2018-01-16T01:23:28.802Z,0.10
2018-01-16T01:28:31.826Z,0.10
2018-01-16T01:33:35.457Z,0.10
2018-01-16T01:38:39.200Z,0.10
2018-01-16T01:43:43.494Z,0.10
2018-01-16T01:48:47.538Z,0.10
2018-01-16T01:53:50.608Z,0.20
2018-01-16T01:58:53.936Z,0.10
2018-01-16T02:03:57.120Z,0.10
2018-01-16T02:09:01.045Z,0.10
2018-01-16T02:14:04.415Z,0.10
2018-01-16T02:19:07.732Z,0.10
2018-01-16T02:24:10.913Z,0.10
2018-01-16T02:29:14.105Z,0.10
2018-01-16T02:34:17.514Z,0.10
2018-01-16T02:39:21.359Z,0.10
2018-01-16T02:44:24.344Z,0.10
2018-01-16T02:49:28.976Z,0.20
2018-01-16T02:54:32.796Z,0.20
2018-01-16T02:59:37.487Z,0.20
2018-01-16T03:04:41.179Z,0.20
2018-01-16T03:09:44.192Z,0.20
2018-01-16T03:14:47.487Z,0.20
2018-01-16T03:19:53.041Z,0.30
2018-01-16T03:24:56.689Z,0.30
2018-01-16T03:30:00.366Z,0.30
2018-01-16T03:35:03.058Z,0.30
2018-01-16T03:40:06.387Z,0.30
2018-01-16T03:45:10.158Z,0.30
2018-01-16T03:50:13.697Z,0.40
2018-01-16T03:55:17.129Z,0.40
2018-01-16T04:00:20.686Z,0.40
2018-01-16T04:05:23.858Z,0.40
2018-01-16T04:10:27.148Z,0.40
2018-01-16T04:15:30.768Z,0.50
2018-01-16T04:20:34.053Z,0.50
2018-01-16T04:25:38.995Z,0.50
2018-01-16T04:30:44.356Z,0.50
2018-01-16T04:35:52.247Z,0.50
2018-01-16T04:40:56.693Z,0.50
2018-01-16T04:45:59.921Z,0.50
2018-01-16T04:51:06.109Z,0.50
2018-01-16T04:56:10.833Z,0.50
2018-01-16T05:01:14.752Z,0.60
2018-01-16T05:06:17.849Z,0.60
2018-01-16T05:11:20.970Z,0.60
2018-01-16T05:16:25.554Z,0.60
2018-01-16T05:21:30.876Z,0.60
2018-01-16T05:26:39.670Z,0.60
2018-01-16T05:31:43.705Z,0.60
2018-01-16T05:36:50.271Z,0.70
2018-01-16T05:41:53.310Z,0.70
2018-01-16T05:46:56.303Z,0.70
2018-01-16T05:51:58.971Z,0.70
2018-01-16T05:57:02.172Z,0.70
2018-01-16T06:02:05.368Z,0.70
2018-01-16T06:07:08.087Z,0.80
2018-01-16T06:12:12.472Z,0.80
2018-01-16T06:17:16.053Z,0.80
2018-01-16T06:22:20.575Z,0.80
2018-01-16T06:27:24.186Z,0.80
2018-01-16T06:32:27.020Z,0.80
2018-01-16T06:37:31.968Z,0.80
2018-01-16T06:42:35.317Z,0.80
2018-01-16T06:47:39.144Z,0.90
2018-01-16T06:52:42.872Z,0.90
2018-01-16T06:57:46.891Z,0.90
2018-01-16T07:02:49.913Z,0.90
2018-01-16T07:07:57.345Z,0.90
2018-01-16T07:13:01.001Z,0.90
2018-01-16T07:18:03.978Z,0.90
2018-01-16T07:23:07.693Z,0.90
2018-01-16T07:28:11.592Z,1.00
2018-01-16T07:33:14.892Z,0.90
2018-01-16T07:38:18.423Z,1.00
2018-01-16T07:43:22.610Z,1.00
2018-01-16T07:48:28.972Z,1.00
2018-01-16T07:53:39.704Z,1.00
2018-01-16T08:03:56.775Z,1.10
2018-01-16T08:08:59.715Z,1.10
2018-01-16T08:14:03.763Z,1.10
2018-01-16T08:19:08.543Z,1.20
2018-01-16T08:24:11.189Z,1.20
2018-01-16T08:29:13.956Z,1.20
2018-01-16T08:34:20.491Z,1.20
2018-01-16T08:39:25.272Z,1.20
2018-01-16T08:44:32.864Z,1.30
2018-01-16T08:49:36.099Z,1.30
2018-01-16T08:54:39.796Z,1.30
2018-01-16T08:59:44.573Z,1.40
2018-01-16T09:04:48.351Z,1.40
2018-01-16T09:09:53.688Z,1.50
2018-01-16T09:14:59.355Z,1.50
2018-01-16T09:20:03.232Z,1.70
2018-01-16T09:25:09.729Z,2.00
2018-01-16T09:40:45.195Z,2.60
2018-01-16T09:45:55.571Z,3.00
2018-01-16T09:51:00.442Z,3.00
2018-01-16T09:56:04.826Z,3.10
2018-01-16T10:01:10.483Z,3.30
2018-01-16T10:06:13.602Z,3.40
2018-01-16T10:11:19.349Z,3.50
2018-01-16T10:16:35.096Z,3.60
2018-01-16T10:21:53.433Z,3.70
2018-01-16T10:27:00.905Z,3.90
2018-01-16T11:35:16.679Z,5.00
2018-01-16T11:40:25.818Z,5.00
2018-01-16T11:45:40.226Z,5.10
2018-01-16T11:50:45.408Z,5.00
2018-01-16T12:02:01.800Z,5.10
2018-01-16T14:06:13.123Z,5.80
2018-01-16T14:11:20.379Z,5.90
2018-01-16T14:16:25.696Z,5.80
2018-01-16T14:27:58.838Z,5.80
2018-01-16T14:33:40.007Z,5.80
2018-01-16T14:44:40.461Z,5.70
2018-01-16T14:50:02.524Z,5.70
2018-01-16T15:00:48.560Z,5.60
2018-01-16T20:30:22.956Z,3.70
2018-01-16T20:35:27.084Z,3.70
2018-01-16T20:56:34.314Z,3.70
2018-01-16T21:35:30.521Z,3.70
2018-01-16T21:45:47.592Z,3.70
2018-01-16T21:56:02.311Z,3.60
2018-01-16T22:17:43.402Z,3.60
